Time;durP1;ratioP1;P1;durP2;ratioP2;P2;SDS_P1;SDS_P2;PMS_P1;PMS_P2;Temp;Humidity;BMP_temperature;BMP_pressure;BME280_temperature;BME280_humidity;BME280_pressure;Samples;Min_cycle;Max_cycle;Signal;HPM_P1;HPM_P2
2022/04/03 00:00:28;;;;;;;3.88;2.50;;;;;;;;;;4958268;28;93108;-68
2022/04/03 00:02:54;;;;;;;3.38;2.28;;;;;;;;;;4954759;28;92477;-70
2022/04/03 00:05:21;;;;;;;2.88;2.30;;;;;;;;;;4955315;28;94262;-69
2022/04/03 00:07:47;;;;;;;10.68;2.63;;;;;;;;;;4953748;28;95699;-68
2022/04/03 00:10:14;;;;;;;4.63;2.13;;;;;;;;;;4954815;28;92603;-71
2022/04/03 00:12:41;;;;;;;7.63;2.58;;;;;;;;;;4954870;28;93540;-68
2022/04/03 00:15:07;;;;;;;4.55;2.40;;;;;;;;;;4955522;28;94599;-68
2022/04/03 00:17:33;;;;;;;5.55;2.60;;;;;;;;;;4955584;28;92496;-69
2022/04/03 00:20:00;;;;;;;7.90;2.65;;;;;;;;;;4954560;28;93169;-69
2022/04/03 00:22:28;;;;;;;7.18;2.85;;;;;;;;;;4957947;28;93782;-68
2022/04/03 00:24:55;;;;;;;9.07;5.15;;;;;;;;;;4955579;28;92979;-69
2022/04/03 00:27:21;;;;;;;4.90;3.28;;;;;;;;;;4953486;28;93213;-68
2022/04/03 00:29:47;;;;;;;5.80;3.00;;;;;;;;;;4954756;28;92440;-68
2022/04/03 00:32:13;;;;;;;6.53;3.90;;;;;;;;;;4953429;28;94904;-68
2022/04/03 00:34:40;;;;;;;8.32;4.60;;;;;;;;;;4954289;28;94519;-68
2022/04/03 00:37:06;;;;;;;6.97;4.00;;;;;;;;;;4955299;28;92900;-68
2022/04/03 00:39:32;;;;;;;7.90;4.18;;;;;;;;;;4955024;28;92839;-68
2022/04/03 00:41:58;;;;;;;10.45;5.07;;;;;;;;;;4955010;28;92997;-69
2022/04/03 00:44:25;;;;;;;7.78;3.90;;;;;;;;;;4957904;28;92383;-69
2022/04/03 00:46:51;;;;;;;7.10;4.13;;;;;;;;;;4954791;28;93527;-69
2022/04/03 00:49:18;;;;;;;8.38;3.47;;;;;;;;;;4955330;28;91772;-68
2022/04/03 00:51:44;;;;;;;8.13;3.53;;;;;;;;;;4954917;28;92652;-68
2022/04/03 00:54:11;;;;;;;8.57;3.63;;;;;;;;;;4954355;28;93591;-69
2022/04/03 00:56:37;;;;;;;7.10;3.28;;;;;;;;;;4952975;28;94923;-68
2022/04/03 00:59:04;;;;;;;8.63;3.05;;;;;;;;;;4954602;28;95393;-68
2022/04/03 01:01:30;;;;;;;5.00;3.15;;;;;;;;;;4954349;28;93386;-68
2022/04/03 01:03:56;;;;;;;10.75;3.50;;;;;;;;;;4944164;28;92489;-68
2022/04/03 01:06:22;;;;;;;5.43;2.95;;;;;;;;;;4957060;28;93061;-68
2022/04/03 01:08:49;;;;;;;4.97;2.85;;;;;;;;;;4953930;28;92818;-68
2022/04/03 01:11:20;;;;;;;4.25;2.50;;;;;;;;;;4954934;28;94223;-69
2022/04/03 01:13:48;;;;;;;4.55;2.60;;;;;;;;;;4952782;28;92724;-68
2022/04/03 01:16:14;;;;;;;6.82;2.88;;;;;;;;;;4957032;28;92689;-68
2022/04/03 01:18:41;;;;;;;4.78;2.75;;;;;;;;;;4957279;28;93070;-67
2022/04/03 01:21:07;;;;;;;8.07;3.03;;;;;;;;;;4955988;28;95639;-69
2022/04/03 01:23:33;;;;;;;4.80;3.08;;;;;;;;;;4957111;28;92561;-69
2022/04/03 01:26:00;;;;;;;8.57;3.05;;;;;;;;;;4961077;28;93091;-68
2022/04/03 01:28:26;;;;;;;9.60;3.50;;;;;;;;;;4958547;28;92595;-69
2022/04/03 01:30:52;;;;;;;4.93;2.70;;;;;;;;;;4947518;28;93986;-69
2022/04/03 01:33:18;;;;;;;6.07;2.78;;;;;;;;;;4957457;28;94615;-68
2022/04/03 01:35:45;;;;;;;3.97;2.88;;;;;;;;;;4957766;28;92369;-69
2022/04/03 01:38:11;;;;;;;6.43;3.20;;;;;;;;;;4957897;28;93983;-68
2022/04/03 01:40:38;;;;;;;7.57;2.75;;;;;;;;;;4957797;28;94261;-69
2022/04/03 01:43:05;;;;;;;4.18;2.90;;;;;;;;;;4957615;28;92495;-68
2022/04/03 01:45:32;;;;;;;8.27;2.78;;;;;;;;;;4956017;28;94981;-68
2022/04/03 01:47:59;;;;;;;6.35;2.63;;;;;;;;;;4960768;28;94011;-68
2022/04/03 01:50:26;;;;;;;5.18;2.75;;;;;;;;;;4949477;28;93017;-68
2022/04/03 01:52:52;;;;;;;4.15;2.55;;;;;;;;;;4953304;28;93473;-68
2022/04/03 01:55:19;;;;;;;4.03;2.67;;;;;;;;;;4957473;28;92715;-68
2022/04/03 01:57:45;;;;;;;5.65;2.58;;;;;;;;;;4956508;28;94340;-68
2022/04/03 02:00:12;;;;;;;5.32;3.28;;;;;;;;;;4956180;28;93235;-69
2022/04/03 02:02:39;;;;;;;6.72;3.25;;;;;;;;;;4956961;28;91684;-69
2022/04/03 02:05:06;;;;;;;4.93;2.67;;;;;;;;;;4956886;28;92701;-68
2022/04/03 02:07:33;;;;;;;4.70;3.42;;;;;;;;;;4956577;28;93885;-69
2022/04/03 02:10:00;;;;;;;5.78;2.85;;;;;;;;;;4959078;28;94799;-69
2022/04/03 02:12:26;;;;;;;5.40;3.33;;;;;;;;;;4956728;28;93297;-69
2022/04/03 02:14:52;;;;;;;7.47;3.78;;;;;;;;;;4957284;28;92459;-68
2022/04/03 02:17:18;;;;;;;9.18;3.95;;;;;;;;;;4956469;28;93156;-68
2022/04/03 02:19:45;;;;;;;7.70;3.70;;;;;;;;;;4956888;28;93486;-68
2022/04/03 02:22:17;;;;;;;6.82;2.70;;;;;;;;;;4956974;28;92496;-68
2022/04/03 02:24:43;;;;;;;4.85;2.83;;;;;;;;;;4957155;28;94130;-68
2022/04/03 02:27:10;;;;;;;7.28;2.92;;;;;;;;;;4956805;28;92512;-69
2022/04/03 02:29:37;;;;;;;5.47;3.05;;;;;;;;;;4951865;28;92518;-68
2022/04/03 02:32:04;;;;;;;6.53;2.40;;;;;;;;;;4955721;28;94199;-68
2022/04/03 02:34:30;;;;;;;7.13;2.67;;;;;;;;;;4954687;28;94789;-68
2022/04/03 02:36:57;;;;;;;3.33;2.22;;;;;;;;;;4957360;28;95315;-68
2022/04/03 02:39:24;;;;;;;4.45;2.35;;;;;;;;;;4956713;28;93420;-68
2022/04/03 02:41:50;;;;;;;6.80;2.90;;;;;;;;;;4956127;28;92667;-70
2022/04/03 02:44:17;;;;;;;5.20;2.70;;;;;;;;;;4970914;28;92976;-68
2022/04/03 02:46:43;;;;;;;6.10;2.47;;;;;;;;;;4956374;28;93926;-68
2022/04/03 02:49:09;;;;;;;5.60;2.47;;;;;;;;;;4956859;28;92490;-68
2022/04/03 02:51:36;;;;;;;10.30;3.75;;;;;;;;;;4957029;28;93545;-69
2022/04/03 02:54:03;;;;;;;5.57;2.10;;;;;;;;;;4959309;28;94492;-69
2022/04/03 02:56:29;;;;;;;7.93;2.42;;;;;;;;;;4956364;28;94270;-68
2022/04/03 02:58:55;;;;;;;3.25;2.70;;;;;;;;;;4953796;28;95861;-68
2022/04/03 03:01:22;;;;;;;2.55;2.17;;;;;;;;;;4955913;28;92810;-68
2022/04/03 03:03:49;;;;;;;6.05;3.05;;;;;;;;;;4956052;28;92615;-68
2022/04/03 03:06:16;;;;;;;13.57;2.78;;;;;;;;;;4955795;28;93081;-68
2022/04/03 03:08:43;;;;;;;6.68;2.40;;;;;;;;;;4956576;28;92519;-68
2022/04/03 03:11:10;;;;;;;4.65;2.20;;;;;;;;;;4956337;28;92894;-68
2022/04/03 03:13:36;;;;;;;5.75;2.47;;;;;;;;;;4955934;28;94375;-69
2022/04/03 03:16:03;;;;;;;8.00;2.30;;;;;;;;;;4960121;28;91628;-69
2022/04/03 03:18:29;;;;;;;2.25;2.00;;;;;;;;;;4955988;28;93909;-68
2022/04/03 03:20:56;;;;;;;4.32;2.10;;;;;;;;;;4956311;28;92683;-68
2022/04/03 03:23:22;;;;;;;4.68;2.47;;;;;;;;;;4954488;28;94860;-68
2022/04/03 03:25:48;;;;;;;4.93;2.15;;;;;;;;;;4956259;28;92815;-68
2022/04/03 03:28:15;;;;;;;7.18;2.42;;;;;;;;;;4955757;28;92428;-68
2022/04/03 03:30:41;;;;;;;7.55;1.92;;;;;;;;;;4953077;28;93053;-68
2022/04/03 03:33:09;;;;;;;2.45;1.85;;;;;;;;;;4955838;28;92376;-68
2022/04/03 03:35:35;;;;;;;5.68;2.00;;;;;;;;;;4959285;28;92813;-70
2022/04/03 03:38:01;;;;;;;5.07;2.33;;;;;;;;;;4955535;28;94381;-68
2022/04/03 03:40:28;;;;;;;11.00;2.42;;;;;;;;;;4955597;28;91704;-68
2022/04/03 03:42:54;;;;;;;3.75;2.40;;;;;;;;;;4955855;28;92678;-68
2022/04/03 03:45:20;;;;;;;4.50;2.70;;;;;;;;;;4955947;28;93209;-69
2022/04/03 03:47:48;;;;;;;5.78;2.58;;;;;;;;;;4954210;28;94806;-68
2022/04/03 03:50:15;;;;;;;3.92;2.30;;;;;;;;;;4955616;28;95189;-69
2022/04/03 03:52:42;;;;;;;6.25;2.63;;;;;;;;;;4946250;28;94439;-69
2022/04/03 03:55:08;;;;;;;5.22;2.90;;;;;;;;;;4955464;28;92861;-68
2022/04/03 03:57:35;;;;;;;2.42;2.00;;;;;;;;;;4958504;28;93464;-69
2022/04/03 04:00:02;;;;;;;4.05;2.50;;;;;;;;;;4954687;28;92535;-68
2022/04/03 04:02:28;;;;;;;6.18;2.20;;;;;;;;;;4955657;28;94257;-70
2022/04/03 04:04:54;;;;;;;3.75;2.22;;;;;;;;;;4956025;28;93676;-69
2022/04/03 04:07:21;;;;;;;3.45;2.15;;;;;;;;;;4954643;28;92413;-69
2022/04/03 04:09:47;;;;;;;5.72;2.33;;;;;;;;;;4955375;28;92505;-68
2022/04/03 04:12:13;;;;;;;3.40;2.47;;;;;;;;;;4953841;28;94853;-70
2022/04/03 04:14:39;;;;;;;4.30;2.55;;;;;;;;;;4955306;28;92537;-68
2022/04/03 04:17:07;;;;;;;7.90;2.65;;;;;;;;;;4970430;28;92816;-69
2022/04/03 04:19:34;;;;;;;5.38;2.90;;;;;;;;;;4957423;28;93388;-69
2022/04/03 04:22:00;;;;;;;4.57;2.53;;;;;;;;;;4955800;28;95688;-70
2022/04/03 04:24:27;;;;;;;7.82;2.40;;;;;;;;;;4955067;28;93463;-68
2022/04/03 04:26:58;;;;;;;4.88;2.67;;;;;;;;;;4955657;28;92441;-68
2022/04/03 04:29:24;;;;;;;5.70;2.30;;;;;;;;;;4955676;28;91891;-68
2022/04/03 04:31:51;;;;;;;5.40;2.85;;;;;;;;;;4954772;28;93434;-68
2022/04/03 04:34:17;;;;;;;3.65;2.20;;;;;;;;;;4954950;28;92546;-68
2022/04/03 04:36:44;;;;;;;3.92;2.30;;;;;;;;;;4953219;28;94847;-69
2022/04/03 04:39:10;;;;;;;9.82;2.75;;;;;;;;;;4954333;28;93170;-69
2022/04/03 04:41:37;;;;;;;4.97;3.08;;;;;;;;;;4957388;28;92844;-69
2022/04/03 04:44:03;;;;;;;9.40;2.70;;;;;;;;;;4954004;28;93878;-68
2022/04/03 04:46:29;;;;;;;8.50;3.53;;;;;;;;;;4955325;28;92789;-69
2022/04/03 04:48:57;;;;;;;5.85;2.75;;;;;;;;;;4954167;28;94186;-68
2022/04/03 04:51:23;;;;;;;8.27;2.28;;;;;;;;;;4954308;28;94065;-68
2022/04/03 04:53:49;;;;;;;7.15;2.60;;;;;;;;;;4955550;28;91900;-68
2022/04/03 04:56:15;;;;;;;4.47;2.22;;;;;;;;;;4954233;28;93508;-68
2022/04/03 04:58:42;;;;;;;5.85;3.33;;;;;;;;;;4954339;28;93609;-69
2022/04/03 05:01:08;;;;;;;2.25;2.05;;;;;;;;;;4952572;28;94941;-69
2022/04/03 05:03:34;;;;;;;4.32;2.05;;;;;;;;;;4957707;28;95563;-68
2022/04/03 05:06:01;;;;;;;3.95;2.35;;;;;;;;;;4953532;28;92714;-68
2022/04/03 05:08:28;;;;;;;4.22;2.40;;;;;;;;;;4955002;28;93051;-68
2022/04/03 05:10:55;;;;;;;6.78;3.10;;;;;;;;;;4954330;28;94497;-68
2022/04/03 05:13:25;;;;;;;14.52;2.88;;;;;;;;;;4954630;28;92462;-68
2022/04/03 05:15:52;;;;;;;6.57;2.53;;;;;;;;;;4953752;28;93339;-68
2022/04/03 05:18:18;;;;;;;4.03;2.30;;;;;;;;;;4955203;28;93795;-68
2022/04/03 05:20:46;;;;;;;4.15;2.58;;;;;;;;;;4953524;28;92530;-69
2022/04/03 05:23:12;;;;;;;3.97;3.13;;;;;;;;;;4957765;28;93201;-70
2022/04/03 05:25:38;;;;;;;7.80;5.20;;;;;;;;;;4952964;28;94886;-69
2022/04/03 05:28:05;;;;;;;12.18;6.30;;;;;;;;;;4954158;28;95320;-68
2022/04/03 05:30:31;;;;;;;11.07;8.10;;;;;;;;;;4949461;28;94183;-68
2022/04/03 05:32:57;;;;;;;9.32;7.22;;;;;;;;;;4954476;28;92835;-68
2022/04/03 05:35:24;;;;;;;9.55;6.45;;;;;;;;;;4954101;28;93168;-68
2022/04/03 05:37:50;;;;;;;13.77;7.03;;;;;;;;;;4953851;28;93084;-68
2022/04/03 05:40:16;;;;;;;12.85;6.30;;;;;;;;;;4947681;28;92548;-68
2022/04/03 05:42:43;;;;;;;9.60;5.80;;;;;;;;;;4954640;28;92958;-68
2022/04/03 05:45:09;;;;;;;12.40;5.78;;;;;;;;;;4947227;28;92397;-69
2022/04/03 05:47:36;;;;;;;7.57;5.28;;;;;;;;;;4953684;28;93141;-69
2022/04/03 05:50:08;;;;;;;6.78;5.07;;;;;;;;;;4952233;28;96859;-68
2022/04/03 05:52:39;;;;;;;7.15;4.25;;;;;;;;;;4952363;28;92861;-68
2022/04/03 05:55:07;;;;;;;;;;;;;;;;;;4950539;28;93211;-68
2022/04/03 05:57:34;;;;;;;5.70;4.22;;;;;;;;;;4954820;28;122860;-68
2022/04/03 06:00:00;;;;;;;9.35;5.25;;;;;;;;;;4953581;28;92454;-69
2022/04/03 06:02:26;;;;;;;7.85;5.40;;;;;;;;;;4957207;28;93067;-68
2022/04/03 06:04:53;;;;;;;8.52;5.35;;;;;;;;;;4955590;28;93610;-68
2022/04/03 06:07:19;;;;;;;13.02;7.03;;;;;;;;;;4960467;28;91694;-69
2022/04/03 06:09:45;;;;;;;14.35;8.27;;;;;;;;;;4956861;28;94304;-68
2022/04/03 06:12:12;;;;;;;12.13;7.55;;;;;;;;;;4957862;28;92471;-68
2022/04/03 06:14:38;;;;;;;11.30;7.10;;;;;;;;;;4955568;28;94827;-69
2022/04/03 06:17:04;;;;;;;35.15;19.30;;;;;;;;;;4956158;28;93235;-68
2022/04/03 06:19:30;;;;;;;35.67;21.05;;;;;;;;;;4954561;28;92473;-69
2022/04/03 06:21:56;;;;;;;25.55;15.15;;;;;;;;;;4955110;28;93004;-68
2022/04/03 06:24:23;;;;;;;20.33;12.80;;;;;;;;;;4955480;28;93079;-68
2022/04/03 06:26:49;;;;;;;19.85;11.95;;;;;;;;;;4956501;28;92464;-68
2022/04/03 06:29:15;;;;;;;16.23;11.50;;;;;;;;;;4958411;28;93253;-68
2022/04/03 06:31:42;;;;;;;16.70;9.73;;;;;;;;;;4956591;28;91673;-69
2022/04/03 06:34:08;;;;;;;16.88;10.13;;;;;;;;;;4956375;28;92588;-68
2022/04/03 06:36:35;;;;;;;14.18;9.45;;;;;;;;;;4955616;28;92912;-68
2022/04/03 06:39:01;;;;;;;13.82;8.70;;;;;;;;;;4955623;28;94842;-68
2022/04/03 06:41:27;;;;;;;11.00;7.85;;;;;;;;;;4957107;28;95327;-68
2022/04/03 06:43:54;;;;;;;10.32;7.80;;;;;;;;;;4956208;28;94253;-68
2022/04/03 06:46:20;;;;;;;15.70;7.38;;;;;;;;;;4956409;28;92560;-69
2022/04/03 06:48:46;;;;;;;13.95;6.82;;;;;;;;;;4957177;28;94281;-69
2022/04/03 06:51:13;;;;;;;13.10;8.52;;;;;;;;;;4959760;28;93246;-70
2022/04/03 06:53:39;;;;;;;12.93;8.77;;;;;;;;;;4956343;28;94228;-69
2022/04/03 06:56:05;;;;;;;17.73;9.40;;;;;;;;;;4956849;28;92694;-68
2022/04/03 06:58:31;;;;;;;15.95;9.02;;;;;;;;;;4956980;28;92486;-69
2022/04/03 07:00:58;;;;;;;10.68;7.40;;;;;;;;;;4956942;28;92975;-68
2022/04/03 07:03:24;;;;;;;8.90;6.60;;;;;;;;;;4953394;28;95908;-68
2022/04/03 07:05:51;;;;;;;11.05;6.80;;;;;;;;;;4939151;28;92556;-68
2022/04/03 07:08:17;;;;;;;12.23;6.60;;;;;;;;;;4950285;28;95062;-70
2022/04/03 07:10:44;;;;;;;8.48;5.57;;;;;;;;;;4953700;28;93481;-71
2022/04/03 07:13:10;;;;;;;12.80;5.60;;;;;;;;;;4958304;28;92502;-70
2022/04/03 07:15:37;;;;;;;8.52;5.30;;;;;;;;;;4956641;28;93599;-70
2022/04/03 07:18:03;;;;;;;11.10;5.35;;;;;;;;;;4953037;28;92533;-70
2022/04/03 07:20:30;;;;;;;10.57;4.15;;;;;;;;;;4972038;28;93129;-68
2022/04/03 07:22:56;;;;;;;6.35;3.67;;;;;;;;;;4966732;28;93551;-69
2022/04/03 07:25:23;;;;;;;8.63;4.38;;;;;;;;;;4965209;28;92516;-68
2022/04/03 07:27:49;;;;;;;8.32;3.55;;;;;;;;;;4953696;28;94781;-70
2022/04/03 07:30:15;;;;;;;6.43;3.55;;;;;;;;;;4955781;28;94494;-69
2022/04/03 07:32:42;;;;;;;7.28;3.55;;;;;;;;;;4958585;28;92580;-69
2022/04/03 07:35:08;;;;;;;3.88;3.10;;;;;;;;;;4955605;28;92653;-69
2022/04/03 07:37:35;;;;;;;6.75;2.80;;;;;;;;;;4955669;28;92500;-70
2022/04/03 07:40:03;;;;;;;6.38;2.97;;;;;;;;;;4955689;28;93359;-70
2022/04/03 07:42:30;;;;;;;8.05;2.70;;;;;;;;;;4954292;28;93880;-68
2022/04/03 07:44:56;;;;;;;5.15;3.00;;;;;;;;;;4956540;28;91683;-68
2022/04/03 07:47:23;;;;;;;8.45;3.10;;;;;;;;;;4955592;28;92752;-70
2022/04/03 07:49:49;;;;;;;3.70;2.70;;;;;;;;;;4954903;28;93450;-69
2022/04/03 07:52:15;;;;;;;6.45;3.22;;;;;;;;;;4953929;28;94874;-71
2022/04/03 07:54:42;;;;;;;4.80;3.15;;;;;;;;;;4958475;28;96664;-70
2022/04/03 07:57:10;;;;;;;4.93;3.17;;;;;;;;;;4955806;28;92472;-69
2022/04/03 07:59:36;;;;;;;4.68;3.90;;;;;;;;;;4955270;28;92389;-68
2022/04/03 08:02:03;;;;;;;9.50;3.95;;;;;;;;;;4955526;28;94259;-69
2022/04/03 08:04:29;;;;;;;26.23;11.57;;;;;;;;;;4955809;28;93025;-69
2022/04/03 08:06:55;;;;;;;7.45;5.03;;;;;;;;;;4953790;28;93461;-69
2022/04/03 08:09:23;;;;;;;6.20;3.35;;;;;;;;;;4955912;28;92513;-68
2022/04/03 08:11:49;;;;;;;8.05;3.58;;;;;;;;;;4955704;28;92459;-68
2022/04/03 08:14:16;;;;;;;6.32;3.95;;;;;;;;;;4955924;28;93324;-68
2022/04/03 08:16:42;;;;;;;6.00;3.10;;;;;;;;;;4957058;28;95809;-68
2022/04/03 08:19:09;;;;;;;6.20;3.00;;;;;;;;;;4955819;28;96547;-68
2022/04/03 08:21:35;;;;;;;3.53;2.28;;;;;;;;;;4955392;28;93209;-69
2022/04/03 08:24:01;;;;;;;2.88;1.80;;;;;;;;;;4955830;28;92738;-68
2022/04/03 08:26:28;;;;;;;7.03;3.20;;;;;;;;;;4955640;28;93181;-68
2022/04/03 08:28:54;;;;;;;5.13;1.92;;;;;;;;;;4954035;28;93523;-68
2022/04/03 08:31:22;;;;;;;3.65;2.15;;;;;;;;;;4955492;28;92469;-68
2022/04/03 08:33:50;;;;;;;3.33;2.13;;;;;;;;;;4956059;28;94205;-68
2022/04/03 08:36:16;;;;;;;3.15;1.63;;;;;;;;;;4955021;28;94545;-68
2022/04/03 08:38:42;;;;;;;6.63;2.75;;;;;;;;;;4958603;28;92408;-68
2022/04/03 08:41:09;;;;;;;4.30;2.72;;;;;;;;;;4953664;28;95728;-70
2022/04/03 08:43:35;;;;;;;3.88;2.13;;;;;;;;;;4955486;28;92469;-68
2022/04/03 08:46:05;;;;;;;6.68;2.33;;;;;;;;;;4955582;28;92967;-68
2022/04/03 08:48:32;;;;;;;5.72;1.88;;;;;;;;;;4955319;28;93795;-68
2022/04/03 08:51:02;;;;;;;6.05;1.95;;;;;;;;;;4955043;28;92467;-68
2022/04/03 08:53:29;;;;;;;;;;;;;;;;;;4955655;28;93326;-68
2022/04/03 08:55:55;;;;;;;5.38;1.38;;;;;;;;;;4955523;28;123323;-68
2022/04/03 08:58:21;;;;;;;0.73;0.68;;;;;;;;;;4955741;28;91848;-68
2022/04/03 09:00:48;;;;;;;3.03;1.00;;;;;;;;;;4957991;28;92621;-70
2022/04/03 09:03:14;;;;;;;6.85;1.23;;;;;;;;;;4955217;28;92377;-70
2022/04/03 09:05:41;;;;;;;1.58;0.70;;;;;;;;;;4953329;28;95180;-68
2022/04/03 09:08:08;;;;;;;2.90;1.30;;;;;;;;;;4954963;28;94587;-68
2022/04/03 09:10:35;;;;;;;3.60;1.15;;;;;;;;;;4955010;28;92406;-68
2022/04/03 09:13:01;;;;;;;6.57;1.00;;;;;;;;;;4954709;28;93104;-69
2022/04/03 09:15:28;;;;;;;4.55;0.90;;;;;;;;;;4955415;28;94740;-68
2022/04/03 09:17:56;;;;;;;2.50;0.50;;;;;;;;;;4954573;28;92538;-69
2022/04/03 09:20:23;;;;;;;3.90;0.98;;;;;;;;;;4955259;28;94182;-69
2022/04/03 09:22:51;;;;;;;2.22;0.90;;;;;;;;;;4958161;28;92385;-71
2022/04/03 09:25:23;;;;;;;2.97;1.17;;;;;;;;;;4954841;28;92668;-68
2022/04/03 09:27:50;;;;;;;5.00;1.30;;;;;;;;;;4954716;28;94437;-68
2022/04/03 09:30:17;;;;;;;3.60;0.82;;;;;;;;;;4953078;28;94865;-69
2022/04/03 09:32:49;;;;;;;3.25;0.80;;;;;;;;;;4954564;28;96591;-68
2022/04/03 09:35:16;;;;;;;7.93;1.40;;;;;;;;;;4954704;28;93122;-69
2022/04/03 09:38:00;;;;;;;4.22;0.80;;;;;;;;;;4958056;28;92421;-68
2022/04/03 09:40:28;;;;;;;4.25;1.10;;;;;;;;;;4958329;28;92927;-68
2022/04/03 09:43:10;;;;;;;2.35;0.77;;;;;;;;;;4960443;28;92422;-69
2022/04/03 09:45:42;;;;;;;3.95;1.33;;;;;;;;;;4958352;28;93176;-69
2022/04/03 09:48:19;;;;;;;7.18;1.10;;;;;;;;;;4958499;28;93821;-69
2022/04/03 09:51:03;;;;;;;3.63;0.82;;;;;;;;;;4957818;28;92543;-68
2022/04/03 09:53:40;;;;;;;2.00;1.05;;;;;;;;;;4957639;28;93411;-68
2022/04/03 09:56:07;;;;;;;3.72;1.08;;;;;;;;;;4956057;28;95639;-68
2022/04/03 09:58:51;;;;;;;4.65;1.27;;;;;;;;;;4957874;28;92537;-69
2022/04/03 10:01:29;;;;;;;2.53;1.00;;;;;;;;;;4957741;28;92860;-69
2022/04/03 10:04:00;;;;;;;2.42;0.90;;;;;;;;;;4957441;28;94426;-68
2022/04/03 10:06:27;;;;;;;3.22;0.95;;;;;;;;;;4960314;28;92527;-69
2022/04/03 10:08:54;;;;;;;1.60;0.52;;;;;;;;;;4957550;28;92395;-69
2022/04/03 10:11:20;;;;;;;1.95;1.40;;;;;;;;;;4957804;28;92478;-69
2022/04/03 10:13:47;;;;;;;1.00;0.80;;;;;;;;;;4958247;28;93156;-69
2022/04/03 10:16:15;;;;;;;4.10;1.63;;;;;;;;;;4957690;28;94388;-71
2022/04/03 10:18:41;;;;;;;1.92;1.05;;;;;;;;;;4957741;28;92434;-70
2022/04/03 10:21:28;;;;;;;3.05;1.60;;;;;;;;;;4955851;28;95200;-69
2022/04/03 10:23:58;;;;;;;3.70;1.63;;;;;;;;;;4946744;28;93450;-71
2022/04/03 10:26:25;;;;;;;4.97;1.42;;;;;;;;;;4957382;28;92439;-69
2022/04/03 10:28:53;;;;;;;3.33;1.23;;;;;;;;;;4959900;28;93135;-69
2022/04/03 10:31:20;;;;;;;4.90;1.50;;;;;;;;;;4957512;28;92415;-69
2022/04/03 10:33:50;;;;;;;11.05;1.83;;;;;;;;;;4957069;28;93238;-69
2022/04/03 10:36:24;;;;;;;5.53;1.50;;;;;;;;;;4956985;28;93421;-70
2022/04/03 10:39:03;;;;;;;4.40;1.58;;;;;;;;;;4957472;28;91665;-70
2022/04/03 10:41:35;;;;;;;4.00;1.35;;;;;;;;;;4956947;28;92417;-69
2022/04/03 10:44:10;;;;;;;3.80;1.27;;;;;;;;;;4957297;28;93664;-69
2022/04/03 10:46:55;;;;;;;6.25;1.60;;;;;;;;;;4955085;28;94722;-70
2022/04/03 10:49:28;;;;;;;4.30;1.30;;;;;;;;;;4956978;28;95519;-70
2022/04/03 10:52:03;;;;;;;3.78;1.13;;;;;;;;;;4959989;28;93478;-69
2022/04/03 10:54:31;;;;;;;3.90;2.10;;;;;;;;;;4957175;28;94215;-69
2022/04/03 10:57:16;;;;;;;6.57;1.02;;;;;;;;;;4957024;28;95409;-70
2022/04/03 10:59:42;;;;;;;3.55;1.17;;;;;;;;;;4957010;28;92558;-70
2022/04/03 11:02:12;;;;;;;2.60;1.08;;;;;;;;;;4954303;28;93249;-70
2022/04/03 11:04:39;;;;;;;1.70;0.70;;;;;;;;;;4971094;28;92568;-70
2022/04/03 11:07:12;;;;;;;1.50;0.80;;;;;;;;;;4954419;28;92468;-69
2022/04/03 11:09:39;;;;;;;3.50;0.57;;;;;;;;;;4956964;28;93144;-70
2022/04/03 11:12:06;;;;;;;0.90;0.70;;;;;;;;;;4954954;28;95634;-69
2022/04/03 11:14:51;;;;;;;1.15;0.60;;;;;;;;;;4959407;28;92494;-69
2022/04/03 11:17:38;;;;;;;1.40;0.60;;;;;;;;;;4955648;28;93187;-70
2022/04/03 11:20:05;;;;;;;3.15;0.52;;;;;;;;;;4946180;28;92555;-69
2022/04/03 11:22:32;;;;;;;2.25;0.60;;;;;;;;;;4970417;28;93205;-69
2022/04/03 11:24:59;;;;;;;1.95;0.60;;;;;;;;;;4953024;28;94904;-69
2022/04/03 11:27:26;;;;;;;1.95;1.00;;;;;;;;;;4956274;28;92438;-69
2022/04/03 11:29:52;;;;;;;1.23;0.40;;;;;;;;;;4956957;28;94194;-69
2022/04/03 11:32:19;;;;;;;1.38;0.43;;;;;;;;;;4956092;28;92790;-69
2022/04/03 11:34:55;;;;;;;2.15;0.38;;;;;;;;;;4955760;28;92394;-69
2022/04/03 11:37:21;;;;;;;1.58;0.47;;;;;;;;;;4943683;28;94827;-70
2022/04/03 11:39:48;;;;;;;0.90;0.40;;;;;;;;;;4955463;28;94117;-70
2022/04/03 11:42:14;;;;;;;4.05;0.43;;;;;;;;;;4953356;28;92868;-70
2022/04/03 11:44:50;;;;;;;0.57;0.45;;;;;;;;;;4946832;28;93399;-70
2022/04/03 11:47:21;;;;;;;0.82;0.50;;;;;;;;;;4956477;28;92520;-70
2022/04/03 11:50:03;;;;;;;1.23;0.82;;;;;;;;;;4954858;28;94234;-69
2022/04/03 11:52:29;;;;;;;0.85;0.52;;;;;;;;;;4957660;28;93462;-69
2022/04/03 11:54:58;;;;;;;0.75;0.45;;;;;;;;;;4955053;28;92197;-70
2022/04/03 11:57:24;;;;;;;1.48;0.73;;;;;;;;;;4960628;28;92530;-69
2022/04/03 11:59:53;;;;;;;4.55;0.40;;;;;;;;;;4954220;28;92860;-69
2022/04/03 12:02:20;;;;;;;4.20;0.57;;;;;;;;;;4952425;28;94828;-68
2022/04/03 12:04:46;;;;;;;1.23;0.70;;;;;;;;;;4953523;28;93541;-69
2022/04/03 12:07:16;;;;;;;0.55;0.55;;;;;;;;;;4943422;28;93842;-69
2022/04/03 12:09:43;;;;;;;3.15;0.50;;;;;;;;;;4955385;28;93335;-68
2022/04/03 12:12:10;;;;;;;1.67;0.65;;;;;;;;;;4955418;28;94503;-68
2022/04/03 12:14:39;;;;;;;0.85;0.60;;;;;;;;;;4955991;28;92554;-70
2022/04/03 12:17:06;;;;;;;1.75;0.93;;;;;;;;;;4955125;28;93406;-70
2022/04/03 12:19:39;;;;;;;0.95;0.63;;;;;;;;;;4958708;28;92880;-69
2022/04/03 12:22:08;;;;;;;3.03;0.80;;;;;;;;;;4955605;28;92444;-69
2022/04/03 12:24:35;;;;;;;2.83;0.63;;;;;;;;;;4955408;28;92487;-69
2022/04/03 12:27:05;;;;;;;1.48;0.93;;;;;;;;;;4953561;28;94782;-68
2022/04/03 12:29:32;;;;;;;4.95;0.70;;;;;;;;;;4952726;28;95570;-66
2022/04/03 12:32:08;;;;;;;3.65;0.90;;;;;;;;;;4954566;28;93087;-68
2022/04/03 12:34:36;;;;;;;2.30;0.93;;;;;;;;;;4955562;28;92404;-68
2022/04/03 12:37:04;;;;;;;3.33;0.90;;;;;;;;;;4955596;28;92355;-68
2022/04/03 12:39:32;;;;;;;0.60;0.60;;;;;;;;;;4954947;28;93375;-67
2022/04/03 12:42:16;;;;;;;5.28;0.73;;;;;;;;;;4958133;28;92425;-68
2022/04/03 12:44:47;;;;;;;2.45;0.80;;;;;;;;;;4955703;28;92707;-69
2022/04/03 12:47:14;;;;;;;1.38;0.60;;;;;;;;;;4954871;28;92696;-71
2022/04/03 12:49:44;;;;;;;6.30;0.93;;;;;;;;;;4954237;28;92879;-73
2022/04/03 12:52:11;;;;;;;2.03;0.60;;;;;;;;;;4953243;28;96928;-71
2022/04/03 12:54:41;;;;;;;5.28;0.85;;;;;;;;;;4954974;28;92470;-71
2022/04/03 13:00:15;;;;;;;4.87;0.90;;;;;;;;;;4954694;28;93555;-71
2022/04/03 13:02:42;;;;;;;1.77;0.82;;;;;;;;;;4955120;28;92489;-71
2022/04/03 13:05:12;;;;;;;4.28;0.70;;;;;;;;;;4957717;28;94213;-70
2022/04/03 13:07:39;;;;;;;5.37;0.80;;;;;;;;;;4953896;28;93958;-70
2022/04/03 13:10:06;;;;;;;3.85;0.93;;;;;;;;;;4954567;28;92813;-69
2022/04/03 13:12:32;;;;;;;3.13;0.80;;;;;;;;;;4955027;28;93174;-70
2022/04/03 13:14:59;;;;;;;1.67;0.80;;;;;;;;;;4955109;28;92413;-68
2022/04/03 13:17:26;;;;;;;1.35;0.68;;;;;;;;;;4952717;28;95305;-69
2022/04/03 13:19:53;;;;;;;4.03;1.05;;;;;;;;;;4954556;28;93412;-70
2022/04/03 13:22:19;;;;;;;3.17;0.63;;;;;;;;;;4954688;28;92552;-69
2022/04/03 13:24:45;;;;;;;2.15;0.82;;;;;;;;;;4954831;28;94230;-72
2022/04/03 13:27:12;;;;;;;0.40;0.40;;;;;;;;;;4957239;28;93504;-68
2022/04/03 13:29:38;;;;;;;0.75;0.60;;;;;;;;;;4954085;28;93217;-67
2022/04/03 13:32:05;;;;;;;0.85;0.60;;;;;;;;;;4954017;28;94853;-68
2022/04/03 13:34:31;;;;;;;0.55;0.55;;;;;;;;;;4955250;28;91779;-68
2022/04/03 13:36:58;;;;;;;0.98;0.60;;;;;;;;;;4954730;28;92500;-68
2022/04/03 13:39:24;;;;;;;3.50;0.55;;;;;;;;;;4954583;28;92439;-68
2022/04/03 13:41:52;;;;;;;2.70;0.60;;;;;;;;;;4948936;28;96163;-69
2022/04/03 13:44:20;;;;;;;0.30;0.30;;;;;;;;;;4958782;28;95576;-69
2022/04/03 13:46:46;;;;;;;0.38;0.30;;;;;;;;;;4953644;28;93606;-67
2022/04/03 13:49:13;;;;;;;3.15;0.40;;;;;;;;;;4957568;28;92727;-70
2022/04/03 13:51:40;;;;;;;0.40;0.40;;;;;;;;;;4953246;28;93413;-69
2022/04/03 13:54:06;;;;;;;1.75;0.47;;;;;;;;;;4953325;28;92432;-68
2022/04/03 13:56:33;;;;;;;0.55;0.50;;;;;;;;;;4954418;28;92975;-70
2022/04/03 13:59:00;;;;;;;0.50;0.50;;;;;;;;;;4958565;28;93466;-70
2022/04/03 14:01:29;;;;;;;0.77;0.60;;;;;;;;;;4973070;28;92429;-71
2022/04/03 14:03:56;;;;;;;1.27;0.50;;;;;;;;;;4971590;28;93065;-68
2022/04/03 14:06:22;;;;;;;1.20;0.75;;;;;;;;;;4970285;28;95888;-70
2022/04/03 14:08:48;;;;;;;0.70;0.70;;;;;;;;;;4947140;28;92770;-70
2022/04/03 14:11:17;;;;;;;3.17;1.02;;;;;;;;;;4953905;28;93531;-69
2022/04/03 14:13:43;;;;;;;1.83;1.50;;;;;;;;;;4953877;28;92394;-69
2022/04/03 14:16:09;;;;;;;2.35;1.55;;;;;;;;;;4953717;28;92891;-62
2022/04/03 14:18:36;;;;;;;1.40;1.30;;;;;;;;;;4952973;28;93404;-63
2022/04/03 14:21:02;;;;;;;2.08;0.98;;;;;;;;;;4954081;28;92462;-62
2022/04/03 14:23:32;;;;;;;1.25;0.70;;;;;;;;;;4957528;28;93560;-62
2022/04/03 14:26:01;;;;;;;;;;;;;;;;;;4957286;28;93608;-62
2022/04/03 14:28:28;;;;;;;2.88;1.23;;;;;;;;;;4957401;28;118005;-61
2022/04/03 14:30:54;;;;;;;4.35;1.58;;;;;;;;;;4958082;28;95214;-63
2022/04/03 14:33:20;;;;;;;1.30;1.20;;;;;;;;;;4957344;28;92694;-62
2022/04/03 14:35:47;;;;;;;1.05;0.93;;;;;;;;;;4957150;28;94171;-63
2022/04/03 14:38:13;;;;;;;3.95;1.00;;;;;;;;;;4956496;28;93493;-63
2022/04/03 14:40:40;;;;;;;2.28;1.10;;;;;;;;;;4957024;28;92428;-62
2022/04/03 14:43:06;;;;;;;0.85;0.70;;;;;;;;;;4956595;28;92966;-64
2022/04/03 14:45:34;;;;;;;3.33;0.75;;;;;;;;;;4956661;28;94257;-63
2022/04/03 14:48:01;;;;;;;1.95;1.00;;;;;;;;;;4946149;28;93123;-61